Time,TemperatureF,DewpointF,PressureIn,WindDirection,WindDirectionDegrees,WindSpeedMPH,WindSpeedGustMPH,Humidity,HourlyPrecipIn,Conditions,Clouds,dailyrainin,SoftwareType,DateUTC
2013-04-08 00:00:00,63.9,60.0,30.13,NNE,25,0.0,0.0,87,0.00,,---,0.00,VWS V14.00,2013-04-08 04:00:00,
2013-04-08 00:01:00,63.8,59.9,30.13,NNE,25,0.0,0.0,87,0.00,,---,0.00,VWS V14.00,2013-04-08 04:01:00,
2013-04-08 00:02:00,63.8,59.9,30.13,NNE,25,0.0,0.0,87,0.00,,---,0.00,VWS V14.00,2013-04-08 04:02:00,
2013-04-08 00:05:00,63.7,59.8,30.13,NNE,25,0.0,0.0,87,0.00,,---,0.00,VWS V14.00,2013-04-08 04:05:00,
2013-04-08 00:10:00,63.5,59.6,30.13,NNE,25,0.0,0.0,87,0.00,,---,0.00,VWS V14.00,2013-04-08 04:10:00,
2013-04-08 00:15:00,63.4,59.5,30.13,NNE,25,0.0,0.0,87,0.00,,---,0.00,VWS V14.00,2013-04-08 04:15:00,
2013-04-08 00:20:00,63.2,59.6,30.13,NNE,25,0.0,0.0,88,0.00,,---,0.00,VWS V14.00,2013-04-08 04:20:00,
2013-04-08 00:26:00,63.0,59.4,30.13,NNE,25,0.0,0.0,88,0.00,,---,0.00,VWS V14.00,2013-04-08 04:26:00,
2013-04-08 00:30:00,62.9,59.3,30.13,NNE,25,0.0,0.0,88,0.00,,---,0.00,VWS V14.00,2013-04-08 04:30:00,
2013-04-08 00:31:00,62.9,59.3,30.13,NNE,25,0.0,0.0,88,0.00,,---,0.00,VWS V14.00,2013-04-08 04:31:00,
2013-04-08 00:36:00,62.7,59.1,30.13,NNE,25,0.0,0.0,88,0.00,,---,0.00,VWS V14.00,2013-04-08 04:36:00,
2013-04-08 00:42:00,62.6,59.3,30.13,NNE,25,0.0,0.0,89,0.00,,---,0.00,VWS V14.00,2013-04-08 04:42:00,
2013-04-08 00:47:00,62.5,59.2,30.13,NNE,25,0.0,0.0,89,0.00,,---,0.00,VWS V14.00,2013-04-08 04:47:00,
2013-04-08 00:52:00,62.5,59.5,30.13,NNE,25,0.0,0.0,90,0.00,,---,0.00,VWS V14.00,2013-04-08 04:52:00,
2013-04-08 00:58:00,62.4,59.1,30.13,NNE,25,0.0,0.0,89,0.00,,---,0.00,VWS V14.00,2013-04-08 04:58:00,
2013-04-08 01:00:00,62.3,59.0,30.12,NNE,25,0.0,0.0,89,0.00,,---,0.00,VWS V14.00,2013-04-08 05:00:00,
2013-04-08 01:03:00,62.2,58.9,30.12,NNE,25,0.0,0.0,89,0.00,,---,0.00,VWS V14.00,2013-04-08 05:03:00,
2013-04-08 01:09:00,62.0,58.7,30.12,NNE,25,0.0,0.0,89,0.00,,---,0.00,VWS V14.00,2013-04-08 05:09:00,
2013-04-08 01:14:00,61.8,58.8,30.12,NNE,25,0.0,0.0,90,0.00,,---,0.00,VWS V14.00,2013-04-08 05:14:00,
2013-04-08 01:20:00,61.7,58.7,30.12,NNE,25,0.0,0.0,90,0.00,,---,0.00,VWS V14.00,2013-04-08 05:20:00,
2013-04-08 01:25:00,61.5,58.5,30.12,NNE,25,0.0,0.0,90,0.00,,---,0.00,VWS V14.00,2013-04-08 05:25:00,
2013-04-08 01:30:00,61.4,58.5,30.12,NNE,25,0.0,0.0,90,0.00,,---,0.00,VWS V14.00,2013-04-08 05:30:00,
2013-04-08 01:35:00,61.3,58.7,30.11,NNE,25,0.0,0.0,91,0.00,,---,0.00,VWS V14.00,2013-04-08 05:35:00,
2013-04-08 01:41:00,61.4,58.8,30.11,NNE,25,0.0,0.0,91,0.00,,---,0.00,VWS V14.00,2013-04-08 05:41:00,
2013-04-08 01:46:00,61.3,58.7,30.11,NNE,25,0.0,0.0,91,0.00,,---,0.00,VWS V14.00,2013-04-08 05:46:00,
2013-04-08 01:51:00,61.1,58.5,30.11,NNE,25,0.0,0.0,91,0.00,,---,0.00,VWS V14.00,2013-04-08 05:51:00,
2013-04-08 01:57:00,61.0,58.4,30.11,NNE,25,0.0,0.0,91,0.00,,---,0.00,VWS V14.00,2013-04-08 05:57:00,
2013-04-08 02:00:00,62.3,59.0,30.12,NNE,25,0.0,0.0,89,0.00,,,0.00,VWS V14.00,2013-04-08 06:00:00,
2013-04-08 02:02:00,60.9,58.6,30.10,NNE,25,0.0,0.0,92,0.00,,---,0.00,VWS V14.00,2013-04-08 06:02:00,
2013-04-08 02:07:00,60.9,58.6,30.10,NNE,25,0.0,0.0,92,0.00,,---,0.00,VWS V14.00,2013-04-08 06:07:00,
2013-04-08 02:12:00,60.8,58.5,30.11,NNE,25,0.0,0.0,92,0.00,,---,0.00,VWS V14.00,2013-04-08 06:12:00,
2013-04-08 02:17:00,60.6,58.3,30.10,NNE,25,0.0,0.0,92,0.00,,---,0.00,VWS V14.00,2013-04-08 06:17:00,
2013-04-08 02:22:00,60.4,58.1,30.10,NNE,25,0.0,0.0,92,0.00,,---,0.00,VWS V14.00,2013-04-08 06:22:00,
2013-04-08 02:27:00,60.3,58.0,30.10,NNE,25,0.0,0.0,92,0.00,,---,0.00,VWS V14.00,2013-04-08 06:27:00,
2013-04-08 02:30:00,61.4,58.5,30.12,NNE,25,0.0,0.0,90,0.00,,,0.00,VWS V14.00,2013-04-08 06:30:00,
2013-04-08 02:33:00,60.3,58.0,30.10,NNE,25,0.0,0.0,92,0.00,,---,0.00,VWS V14.00,2013-04-08 06:33:00,
2013-04-08 02:38:00,60.4,58.1,30.10,NNE,25,0.0,0.0,92,0.00,,---,0.00,VWS V14.00,2013-04-08 06:38:00,
2013-04-08 02:43:00,60.5,58.2,30.10,NNE,25,0.0,0.0,92,0.00,,---,0.00,VWS V14.00,2013-04-08 06:43:00,
2013-04-08 02:48:00,60.5,58.5,30.10,NNE,25,0.0,0.0,93,0.00,,---,0.00,VWS V14.00,2013-04-08 06:48:00,
2013-04-08 02:53:00,60.5,58.5,30.10,NNE,25,0.0,0.0,93,0.00,,---,0.00,VWS V14.00,2013-04-08 06:53:00,
2013-04-08 02:59:00,60.4,58.4,30.09,NNE,25,0.0,0.0,93,0.00,,---,0.00,VWS V14.00,2013-04-08 06:59:00,
2013-04-08 03:04:00,60.3,58.3,30.09,NNE,25,0.0,0.0,93,0.00,,---,0.00,VWS V14.00,2013-04-08 07:04:00,
2013-04-08 03:10:00,60.3,58.3,30.09,NNE,25,0.0,0.0,93,0.00,,---,0.00,VWS V14.00,2013-04-08 07:10:00,
2013-04-08 03:15:00,60.3,58.3,30.09,NNE,25,0.0,0.0,93,0.00,,---,0.00,VWS V14.00,2013-04-08 07:15:00,
2013-04-08 03:20:00,60.2,58.2,30.09,NNE,25,0.0,0.0,93,0.00,,---,0.00,VWS V14.00,2013-04-08 07:20:00,
2013-04-08 03:26:00,60.1,58.1,30.08,NNE,25,0.0,0.0,93,0.00,,---,0.00,VWS V14.00,2013-04-08 07:26:00,
2013-04-08 03:30:00,60.1,58.1,30.08,NNE,25,0.0,0.0,93,0.00,,---,0.00,VWS V14.00,2013-04-08 07:30:00,
2013-04-08 03:32:00,60.1,58.1,30.08,NNE,25,0.0,0.0,93,0.00,,---,0.00,VWS V14.00,2013-04-08 07:32:00,
2013-04-08 03:37:00,60.1,58.1,30.08,NNE,25,0.0,0.0,93,0.00,,---,0.00,VWS V14.00,2013-04-08 07:37:00,
2013-04-08 03:42:00,60.0,58.0,30.08,NNE,25,0.0,0.0,93,0.00,,---,0.00,VWS V14.00,2013-04-08 07:42:00,
2013-04-08 03:47:00,59.9,57.9,30.08,NNE,25,0.0,0.0,93,0.00,,---,0.00,VWS V14.00,2013-04-08 07:47:00,
2013-04-08 03:52:00,59.8,57.8,30.08,NNE,25,0.0,0.0,93,0.00,,---,0.00,VWS V14.00,2013-04-08 07:52:00,
2013-04-08 03:57:00,59.8,57.8,30.08,NNE,25,0.0,0.0,93,0.00,,---,0.00,VWS V14.00,2013-04-08 07:57:00,
2013-04-08 04:00:00,59.7,57.7,30.08,NNE,25,0.0,0.0,93,0.00,,---,0.00,VWS V14.00,2013-04-08 08:00:00,
2013-04-08 04:03:00,59.6,57.6,30.08,NNE,25,0.0,0.0,93,0.00,,---,0.00,VWS V14.00,2013-04-08 08:03:00,
2013-04-08 04:08:00,59.6,57.9,30.08,NNE,25,0.0,0.0,94,0.00,,---,0.00,VWS V14.00,2013-04-08 08:08:00,
2013-04-08 04:13:00,59.6,57.9,30.08,NNE,25,0.0,0.0,94,0.00,,---,0.00,VWS V14.00,2013-04-08 08:13:00,
2013-04-08 04:19:00,59.5,57.8,30.08,NNE,25,0.0,0.0,94,0.00,,---,0.00,VWS V14.00,2013-04-08 08:19:00,
2013-04-08 04:25:00,59.5,57.8,30.08,NNE,25,0.0,0.0,94,0.00,,---,0.00,VWS V14.00,2013-04-08 08:25:00,
2013-04-08 04:30:00,59.3,57.6,30.08,NNE,25,0.0,0.0,94,0.00,,---,0.00,VWS V14.00,2013-04-08 08:30:00,
2013-04-08 04:36:00,59.1,57.4,30.08,NNE,25,0.0,0.0,94,0.00,,---,0.00,VWS V14.00,2013-04-08 08:36:00,
2013-04-08 04:42:00,59.0,57.3,30.08,NNE,25,0.0,0.0,94,0.00,,---,0.00,VWS V14.00,2013-04-08 08:42:00,
2013-04-08 04:47:00,59.0,57.3,30.08,NNE,25,0.0,0.0,94,0.00,,---,0.00,VWS V14.00,2013-04-08 08:47:00,
2013-04-08 04:52:00,59.0,57.3,30.08,NNE,25,0.0,0.0,94,0.00,,---,0.00,VWS V14.00,2013-04-08 08:52:00,
2013-04-08 04:58:00,59.0,57.3,30.08,NNE,25,0.0,0.0,94,0.00,,---,0.00,VWS V14.00,2013-04-08 08:58:00,
2013-04-08 05:00:00,59.0,57.3,30.07,NNE,25,0.0,0.0,94,0.00,,---,0.00,VWS V14.00,2013-04-08 09:00:00,
2013-04-08 05:03:00,59.0,57.3,30.08,NNE,25,0.0,0.0,94,0.00,,---,0.00,VWS V14.00,2013-04-08 09:03:00,
2013-04-08 05:08:00,58.9,57.2,30.08,NNE,25,0.0,0.0,94,0.00,,---,0.00,VWS V14.00,2013-04-08 09:08:00,
2013-04-08 05:13:00,58.7,57.0,30.08,NNE,25,0.0,0.0,94,0.00,,---,0.00,VWS V14.00,2013-04-08 09:13:00,
2013-04-08 05:19:00,58.5,56.8,30.08,NNE,25,0.0,0.0,94,0.00,,---,0.00,VWS V14.00,2013-04-08 09:19:00,
2013-04-08 05:24:00,58.3,56.6,30.08,NNE,25,0.0,0.0,94,0.00,,---,0.00,VWS V14.00,2013-04-08 09:24:00,
2013-04-08 05:29:00,58.2,56.5,30.08,NNE,25,0.0,0.0,94,0.00,,---,0.00,VWS V14.00,2013-04-08 09:29:00,
2013-04-08 05:30:00,58.2,56.5,30.08,NNE,25,0.0,0.0,94,0.00,,---,0.00,VWS V14.00,2013-04-08 09:30:00,
2013-04-08 05:34:00,58.2,56.5,30.08,NNE,25,0.0,0.0,94,0.00,,---,0.00,VWS V14.00,2013-04-08 09:34:00,
2013-04-08 05:39:00,58.0,56.3,30.08,NNE,25,0.0,0.0,94,0.00,,---,0.00,VWS V14.00,2013-04-08 09:39:00,
2013-04-08 05:45:00,57.8,56.1,30.08,NNE,25,0.0,0.0,94,0.00,,---,0.00,VWS V14.00,2013-04-08 09:45:00,
2013-04-08 05:50:00,57.9,56.2,30.08,NNE,25,0.0,0.0,94,0.00,,---,0.00,VWS V14.00,2013-04-08 09:50:00,
2013-04-08 05:55:00,58.0,56.3,30.09,NNE,25,0.0,0.0,94,0.00,,---,0.00,VWS V14.00,2013-04-08 09:55:00,
2013-04-08 06:00:00,58.0,56.3,30.09,NNE,25,0.0,0.0,94,0.00,,---,0.00,VWS V14.00,2013-04-08 10:00:00,
2013-04-08 06:06:00,58.0,56.3,30.09,NNE,25,0.0,0.0,94,0.00,,---,0.00,VWS V14.00,2013-04-08 10:06:00,
2013-04-08 06:11:00,57.9,56.2,30.09,NNE,25,0.0,0.0,94,0.00,,---,0.00,VWS V14.00,2013-04-08 10:11:00,
2013-04-08 06:17:00,57.8,56.1,30.09,NNE,25,0.0,0.0,94,0.00,,---,0.00,VWS V14.00,2013-04-08 10:17:00,
2013-04-08 06:23:00,57.7,56.0,30.09,NNE,25,0.0,0.0,94,0.00,,---,0.00,VWS V14.00,2013-04-08 10:23:00,
2013-04-08 06:28:00,57.7,56.0,30.09,NNE,25,0.0,0.0,94,0.00,,---,0.00,VWS V14.00,2013-04-08 10:28:00,
2013-04-08 06:30:00,57.6,55.9,30.10,NNE,25,0.0,0.0,94,0.00,,---,0.00,VWS V14.00,2013-04-08 10:30:00,
2013-04-08 06:33:00,57.6,55.9,30.10,NNE,25,0.0,0.0,94,0.00,,---,0.00,VWS V14.00,2013-04-08 10:33:00,
2013-04-08 06:38:00,57.5,56.1,30.10,NNE,25,0.0,0.0,95,0.00,,---,0.00,VWS V14.00,2013-04-08 10:38:00,
2013-04-08 06:43:00,57.5,56.1,30.10,NNE,25,0.0,0.0,95,0.00,,---,0.00,VWS V14.00,2013-04-08 10:43:00,
2013-04-08 06:49:00,57.4,55.7,30.10,NNE,25,0.0,0.0,94,0.00,,---,0.00,VWS V14.00,2013-04-08 10:49:00,
2013-04-08 06:54:00,57.4,55.7,30.11,NNE,25,0.0,0.0,94,0.00,,---,0.00,VWS V14.00,2013-04-08 10:54:00,
2013-04-08 06:59:00,57.4,56.0,30.11,NNE,25,0.0,0.0,95,0.00,,---,0.00,VWS V14.00,2013-04-08 10:59:00,
2013-04-08 07:00:00,57.4,56.0,30.11,NNE,25,0.0,0.0,95,0.00,,---,0.00,VWS V14.00,2013-04-08 11:00:00,
2013-04-08 07:05:00,57.4,56.0,30.11,NNE,25,0.0,0.0,95,0.00,,---,0.00,VWS V14.00,2013-04-08 11:05:00,
2013-04-08 07:11:00,57.4,56.0,30.11,NNE,25,0.0,0.0,95,0.00,,---,0.00,VWS V14.00,2013-04-08 11:11:00,
2013-04-08 07:16:00,57.3,55.9,30.12,NNE,25,0.0,0.0,95,0.00,,---,0.00,VWS V14.00,2013-04-08 11:16:00,
2013-04-08 07:22:00,57.3,55.9,30.12,NNE,25,0.0,0.0,95,0.00,,---,0.00,VWS V14.00,2013-04-08 11:22:00,
2013-04-08 07:27:00,57.2,55.8,30.12,NNE,25,0.0,0.0,95,0.00,,---,0.00,VWS V14.00,2013-04-08 11:27:00,
2013-04-08 07:30:00,57.3,55.9,30.12,NNE,25,0.0,0.0,95,0.00,,---,0.00,VWS V14.00,2013-04-08 11:30:00,
2013-04-08 07:32:00,57.3,55.9,30.12,NNE,25,0.0,0.0,95,0.00,,---,0.00,VWS V14.00,2013-04-08 11:32:00,
2013-04-08 07:37:00,57.5,56.1,30.12,NNE,25,0.0,0.0,95,0.00,,---,0.00,VWS V14.00,2013-04-08 11:37:00,
2013-04-08 07:42:00,57.6,56.2,30.12,NNE,25,0.0,0.0,95,0.00,,---,0.00,VWS V14.00,2013-04-08 11:42:00,
2013-04-08 07:47:00,57.9,56.5,30.12,NNE,25,0.0,0.0,95,0.00,,---,0.00,VWS V14.00,2013-04-08 11:47:00,
2013-04-08 07:53:00,58.0,56.6,30.12,NNE,25,0.0,0.0,95,0.00,,---,0.00,VWS V14.00,2013-04-08 11:53:00,
2013-04-08 07:58:00,58.1,56.7,30.13,NNE,25,0.0,0.0,95,0.00,,---,0.00,VWS V14.00,2013-04-08 11:58:00,
2013-04-08 08:00:00,58.2,56.8,30.13,NNE,25,0.0,0.0,95,0.00,,---,0.00,VWS V14.00,2013-04-08 12:00:00,
2013-04-08 08:03:00,58.4,57.0,30.13,NNE,25,0.0,0.0,95,0.00,,---,0.00,VWS V14.00,2013-04-08 12:03:00,
2013-04-08 08:08:00,59.0,57.6,30.13,NNE,25,0.0,0.0,95,0.00,,---,0.00,VWS V14.00,2013-04-08 12:08:00,
2013-04-08 08:14:00,59.4,58.0,30.13,NNE,25,0.0,0.0,95,0.00,,---,0.00,VWS V14.00,2013-04-08 12:14:00,
2013-04-08 08:20:00,59.8,58.7,30.14,NNE,25,0.0,0.0,96,0.00,,---,0.00,VWS V14.00,2013-04-08 12:20:00,
2013-04-08 08:25:00,60.2,59.1,30.14,NNE,25,0.0,0.0,96,0.00,,---,0.00,VWS V14.00,2013-04-08 12:25:00,
2013-04-08 08:30:00,60.9,59.8,30.14,NNE,25,0.0,0.0,96,0.00,,---,0.00,VWS V14.00,2013-04-08 12:30:00,
2013-04-08 08:35:00,61.3,60.2,30.14,NNE,25,0.0,0.0,96,0.00,,---,0.00,VWS V14.00,2013-04-08 12:35:00,
2013-04-08 08:40:00,61.8,60.7,30.14,NNE,25,0.0,0.0,96,0.00,,---,0.00,VWS V14.00,2013-04-08 12:40:00,
2013-04-08 08:46:00,62.4,61.2,30.14,NNE,25,0.0,0.0,96,0.00,,---,0.00,VWS V14.00,2013-04-08 12:46:00,
2013-04-08 08:51:00,62.9,61.8,30.14,NNE,25,0.0,0.0,96,0.00,,---,0.00,VWS V14.00,2013-04-08 12:51:00,
2013-04-08 08:56:00,63.5,62.3,30.14,NNE,25,0.0,0.0,96,0.00,,---,0.00,VWS V14.00,2013-04-08 12:56:00,
2013-04-08 09:00:00,63.7,62.5,30.14,NNE,25,0.0,1.0,96,0.00,,---,0.00,VWS V14.00,2013-04-08 13:00:00,
2013-04-08 09:02:00,63.8,62.6,30.14,NNE,25,0.0,0.0,96,0.00,,---,0.00,VWS V14.00,2013-04-08 13:02:00,
2013-04-08 09:07:00,64.2,63.0,30.14,NNE,25,0.0,0.0,96,0.00,,---,0.00,VWS V14.00,2013-04-08 13:07:00,
2013-04-08 09:12:00,64.7,63.5,30.14,NNE,25,0.0,0.0,96,0.00,,---,0.00,VWS V14.00,2013-04-08 13:12:00,
2013-04-08 09:17:00,65.3,64.1,30.14,NE,50,2.0,4.0,96,0.00,,---,0.00,VWS V14.00,2013-04-08 13:17:00,
2013-04-08 09:23:00,66.0,64.5,30.15,NE,50,0.0,4.0,95,0.00,,---,0.00,VWS V14.00,2013-04-08 13:23:00,
2013-04-08 09:28:00,66.7,64.6,30.15,NE,49,0.0,4.0,93,0.00,,---,0.00,VWS V14.00,2013-04-08 13:28:00,
2013-04-08 09:30:00,67.1,64.7,30.15,NE,50,0.0,4.0,92,0.00,,---,0.00,VWS V14.00,2013-04-08 13:30:00,
2013-04-08 09:33:00,67.4,64.4,30.15,NE,49,0.0,0.0,90,0.00,,---,0.00,VWS V14.00,2013-04-08 13:33:00,
2013-04-08 09:39:00,68.1,64.1,30.15,NE,50,0.0,4.0,87,0.00,,---,0.00,VWS V14.00,2013-04-08 13:39:00,
2013-04-08 09:44:00,68.9,64.2,30.15,South,191,2.0,4.0,85,0.00,,---,0.00,VWS V14.00,2013-04-08 13:44:00,
2013-04-08 09:50:00,69.5,63.8,30.15,SSW,192,0.0,4.0,82,0.00,,---,0.00,VWS V14.00,2013-04-08 13:50:00,
2013-04-08 09:55:00,70.1,63.3,30.15,SSE,163,0.0,4.0,79,0.00,,---,0.00,VWS V14.00,2013-04-08 13:55:00,
2013-04-08 10:00:00,70.7,63.1,30.15,NE,52,0.0,4.0,77,0.00,,---,0.00,VWS V14.00,2013-04-08 14:00:00,
2013-04-08 10:05:00,71.3,62.6,30.15,South,180,0.0,0.0,74,0.00,,---,0.00,VWS V14.00,2013-04-08 14:05:00,
2013-04-08 10:11:00,71.7,62.6,30.15,SSW,203,0.0,2.0,73,0.00,,---,0.00,VWS V14.00,2013-04-08 14:11:00,
2013-04-08 10:16:00,72.0,62.1,30.15,SSE,167,0.0,2.0,71,0.00,,---,0.00,VWS V14.00,2013-04-08 14:16:00,
2013-04-08 10:21:00,72.4,62.1,30.15,SSW,199,0.0,2.0,70,0.00,,---,0.00,VWS V14.00,2013-04-08 14:21:00,
2013-04-08 10:27:00,72.6,61.9,30.15,SSW,199,0.0,2.0,69,0.00,,---,0.00,VWS V14.00,2013-04-08 14:27:00,
2013-04-08 10:30:00,72.9,61.7,30.15,SSW,197,0.0,2.0,68,0.00,,---,0.00,VWS V14.00,2013-04-08 14:30:00,
2013-04-08 10:32:00,73.0,61.4,30.15,SSW,197,0.0,1.0,67,0.00,,---,0.00,VWS V14.00,2013-04-08 14:32:00,
2013-04-08 10:37:00,73.2,62.0,30.15,SW,232,0.0,4.0,68,0.00,,---,0.00,VWS V14.00,2013-04-08 14:37:00,
2013-04-08 10:43:00,73.7,62.1,30.15,NNE,33,0.0,4.0,67,0.00,,---,0.00,VWS V14.00,2013-04-08 14:43:00,
2013-04-08 10:48:00,74.2,62.1,30.15,NE,41,0.0,4.0,66,0.00,,---,0.00,VWS V14.00,2013-04-08 14:48:00,
2013-04-08 10:53:00,74.8,61.8,30.15,NE,41,0.0,4.0,64,0.00,,---,0.00,VWS V14.00,2013-04-08 14:53:00,
2013-04-08 10:58:00,75.3,61.8,30.15,East,99,0.0,4.0,63,0.00,,---,0.00,VWS V14.00,2013-04-08 14:58:00,
2013-04-08 11:00:00,75.5,61.6,30.15,NE,36,2.0,4.0,62,0.00,,---,0.00,VWS V14.00,2013-04-08 15:00:00,
2013-04-08 11:04:00,75.5,61.6,30.15,NNE,18,0.0,4.0,62,0.00,,---,0.00,VWS V14.00,2013-04-08 15:04:00,
2013-04-08 11:09:00,75.6,61.2,30.16,NNE,18,0.0,4.0,61,0.00,,---,0.00,VWS V14.00,2013-04-08 15:09:00,
2013-04-08 11:15:00,75.9,61.0,30.15,NNE,18,0.0,4.0,60,0.00,,---,0.00,VWS V14.00,2013-04-08 15:15:00,
2013-04-08 11:20:00,76.2,61.8,30.15,WSW,253,0.0,4.0,61,0.00,,---,0.00,VWS V14.00,2013-04-08 15:20:00,
2013-04-08 11:25:00,76.6,60.2,30.15,SW,233,0.0,4.0,57,0.00,,---,0.00,VWS V14.00,2013-04-08 15:25:00,
2013-04-08 11:30:00,76.9,60.0,30.15,South,173,0.0,4.0,56,0.00,,---,0.00,VWS V14.00,2013-04-08 15:30:00,
2013-04-08 11:31:00,76.8,59.9,30.15,South,173,0.0,4.0,56,0.00,,---,0.00,VWS V14.00,2013-04-08 15:31:00,
2013-04-08 11:36:00,77.2,59.3,30.15,SSW,198,0.0,1.0,54,0.00,,---,0.00,VWS V14.00,2013-04-08 15:36:00,
2013-04-08 11:42:00,77.9,59.4,30.15,SSE,161,0.0,7.0,53,0.00,,---,0.00,VWS V14.00,2013-04-08 15:42:00,
2013-04-08 11:47:00,78.6,60.6,30.15,SSW,198,0.0,7.0,54,0.00,,---,0.00,VWS V14.00,2013-04-08 15:47:00,
2013-04-08 11:53:00,79.2,60.6,30.15,NW,306,0.0,7.0,53,0.00,,---,0.00,VWS V14.00,2013-04-08 15:53:00,
2013-04-08 11:58:00,79.8,60.6,30.15,South,170,0.0,7.0,52,0.00,,---,0.00,VWS V14.00,2013-04-08 15:58:00,
2013-04-08 12:00:00,80.1,61.4,30.15,NNW,342,0.0,7.0,53,0.00,,---,0.00,VWS V14.00,2013-04-08 16:00:00,
2013-04-08 12:04:00,80.0,60.8,30.14,NE,51,1.0,1.0,52,0.00,,---,0.00,VWS V14.00,2013-04-08 16:04:00,
2013-04-08 12:09:00,80.2,61.5,30.15,NE,46,1.0,1.0,53,0.00,,---,0.00,VWS V14.00,2013-04-08 16:09:00,
2013-04-08 12:15:00,80.5,60.2,30.14,South,182,0.0,1.0,50,0.00,,---,0.00,VWS V14.00,2013-04-08 16:15:00,
2013-04-08 12:20:00,80.5,60.7,30.15,South,188,0.0,6.0,51,0.00,,---,0.00,VWS V14.00,2013-04-08 16:20:00,
2013-04-08 12:25:00,80.6,60.8,30.15,South,186,0.0,6.0,51,0.00,,---,0.00,VWS V14.00,2013-04-08 16:25:00,
2013-04-08 12:30:00,80.6,60.3,30.14,ESE,119,0.0,7.0,50,0.00,,---,0.00,VWS V14.00,2013-04-08 16:30:00,
2013-04-08 12:31:00,80.6,60.3,30.14,ESE,118,0.0,7.0,50,0.00,,---,0.00,VWS V14.00,2013-04-08 16:31:00,
2013-04-08 12:36:00,80.7,60.9,30.14,SSW,207,0.0,5.0,51,0.00,,---,0.00,VWS V14.00,2013-04-08 16:36:00,
2013-04-08 12:42:00,81.1,60.2,30.14,SSW,199,0.0,6.0,49,0.00,,---,0.00,VWS V14.00,2013-04-08 16:42:00,
2013-04-08 12:47:00,81.3,61.5,30.14,NW,315,0.0,6.0,51,0.00,,---,0.00,VWS V14.00,2013-04-08 16:47:00,
2013-04-08 12:52:00,81.6,60.6,30.14,SW,228,0.0,6.0,49,0.00,,---,0.00,VWS V14.00,2013-04-08 16:52:00,
2013-04-08 12:58:00,81.9,60.3,30.14,NE,36,0.0,7.0,48,0.00,,---,0.00,VWS V14.00,2013-04-08 16:58:00,
2013-04-08 13:00:00,81.9,60.9,30.14,North,360,0.0,7.0,49,0.00,,---,0.00,VWS V14.00,2013-04-08 17:00:00,
2013-04-08 13:03:00,82.0,61.0,30.14,North,5,0.0,0.0,49,0.00,,---,0.00,VWS V14.00,2013-04-08 17:03:00,
2013-04-08 13:08:00,81.7,61.3,30.14,NE,39,2.0,3.0,50,0.00,,---,0.00,VWS V14.00,2013-04-08 17:08:00,
2013-04-08 13:13:00,81.8,61.4,30.13,NE,37,0.0,3.0,50,0.00,,---,0.00,VWS V14.00,2013-04-08 17:13:00,
2013-04-08 13:19:00,82.1,61.1,30.13,SSW,192,0.0,3.0,49,0.00,,---,0.00,VWS V14.00,2013-04-08 17:19:00,
2013-04-08 13:24:00,82.1,59.9,30.13,NNE,26,2.0,5.0,47,0.00,,---,0.00,VWS V14.00,2013-04-08 17:24:00,
2013-04-08 13:30:00,81.3,59.8,30.12,NE,44,0.0,5.0,48,0.00,,---,0.00,VWS V14.00,2013-04-08 17:30:00,
2013-04-08 13:35:00,80.7,61.5,30.12,NE,45,0.0,3.0,52,0.00,,---,0.00,VWS V14.00,2013-04-08 17:35:00,
2013-04-08 13:40:00,80.3,60.0,30.12,SSW,211,0.0,3.0,50,0.00,,---,0.00,VWS V14.00,2013-04-08 17:40:00,
2013-04-08 13:45:00,80.4,60.1,30.12,SSW,208,0.0,3.0,50,0.00,,---,0.00,VWS V14.00,2013-04-08 17:45:00,
2013-04-08 13:52:00,80.8,60.4,30.11,WSW,257,0.0,3.0,50,0.00,,---,0.00,VWS V14.00,2013-04-08 17:52:00,
2013-04-08 13:57:00,81.2,60.8,30.11,NNE,14,0.0,3.0,50,0.00,,---,0.00,VWS V14.00,2013-04-08 17:57:00,
2013-04-08 14:00:00,81.6,60.0,30.11,SSW,194,0.0,3.0,48,0.00,,---,0.00,VWS V14.00,2013-04-08 18:00:00,
2013-04-08 14:02:00,81.6,60.0,30.11,SSW,194,0.0,0.0,48,0.00,,---,0.00,VWS V14.00,2013-04-08 18:02:00,
2013-04-08 14:07:00,82.1,59.9,30.11,East,85,0.0,1.0,47,0.00,,---,0.00,VWS V14.00,2013-04-08 18:07:00,
2013-04-08 14:12:00,82.3,60.7,30.11,NNE,30,0.0,3.0,48,0.00,,---,0.00,VWS V14.00,2013-04-08 18:12:00,
2013-04-08 14:18:00,82.9,61.2,30.10,SW,230,0.0,3.0,48,0.00,,---,0.00,VWS V14.00,2013-04-08 18:18:00,
2013-04-08 14:23:00,83.6,60.7,30.10,South,180,0.0,3.0,46,0.00,,---,0.00,VWS V14.00,2013-04-08 18:23:00,
2013-04-08 14:28:00,83.9,60.9,30.10,SSW,200,0.0,6.0,46,0.00,,---,0.00,VWS V14.00,2013-04-08 18:28:00,
2013-04-08 14:30:00,83.8,60.8,30.10,SW,228,0.0,9.0,46,0.00,,---,0.00,VWS V14.00,2013-04-08 18:30:00,
2013-04-08 14:34:00,83.8,60.8,30.09,SSW,206,0.0,6.0,46,0.00,,---,0.00,VWS V14.00,2013-04-08 18:34:00,
2013-04-08 14:39:00,84.1,61.1,30.09,South,188,0.0,6.0,46,0.00,,---,0.00,VWS V14.00,2013-04-08 18:39:00,
2013-04-08 14:45:00,83.8,60.8,30.09,South,184,0.0,6.0,46,0.00,,---,0.00,VWS V14.00,2013-04-08 18:45:00,
2013-04-08 14:50:00,83.0,61.3,30.09,NNE,32,2.0,6.0,48,0.00,,---,0.00,VWS V14.00,2013-04-08 18:50:00,
2013-04-08 14:55:00,82.7,61.6,30.09,NNE,32,0.0,6.0,49,0.00,,---,0.00,VWS V14.00,2013-04-08 18:55:00,
2013-04-08 15:00:00,82.2,61.2,30.08,North,355,0.0,6.0,49,0.00,,---,0.00,VWS V14.00,2013-04-08 19:00:00,
2013-04-08 15:01:00,82.2,61.2,30.08,North,355,0.0,6.0,49,0.00,,---,0.00,VWS V14.00,2013-04-08 19:01:00,
2013-04-08 15:06:00,81.7,61.3,30.08,ENE,64,0.0,1.0,50,0.00,,---,0.00,VWS V14.00,2013-04-08 19:06:00,
2013-04-08 15:12:00,81.3,62.0,30.08,NE,38,0.0,5.0,52,0.00,,---,0.00,VWS V14.00,2013-04-08 19:12:00,
2013-04-08 15:17:00,82.2,61.7,30.08,NE,45,0.0,7.0,50,0.00,,---,0.00,VWS V14.00,2013-04-08 19:17:00,
2013-04-08 15:22:00,82.4,61.9,30.08,NNE,21,0.0,7.0,50,0.00,,---,0.00,VWS V14.00,2013-04-08 19:22:00,
2013-04-08 15:28:00,83.1,62.0,30.08,West,279,0.0,7.0,49,0.00,,---,0.00,VWS V14.00,2013-04-08 19:28:00,
2013-04-08 15:30:00,83.7,62.0,30.08,North,355,0.0,7.0,48,0.00,,---,0.00,VWS V14.00,2013-04-08 19:30:00,
2013-04-08 15:33:00,84.0,61.6,30.08,North,355,0.0,0.0,47,0.00,,---,0.00,VWS V14.00,2013-04-08 19:33:00,
2013-04-08 15:38:00,84.3,61.3,30.08,NNE,24,1.0,5.0,46,0.00,,---,0.00,VWS V14.00,2013-04-08 19:38:00,
2013-04-08 15:43:00,83.6,61.3,30.08,NE,35,0.0,6.0,47,0.00,,---,0.00,VWS V14.00,2013-04-08 19:43:00,
2013-04-08 15:48:00,83.2,61.5,30.07,East,82,0.0,6.0,48,0.00,,---,0.00,VWS V14.00,2013-04-08 19:48:00,
2013-04-08 15:54:00,82.5,61.4,30.08,ESE,115,0.0,6.0,49,0.00,,---,0.00,VWS V14.00,2013-04-08 19:54:00,
2013-04-08 15:59:00,82.4,61.3,30.08,West,261,0.0,6.0,49,0.00,,---,0.00,VWS V14.00,2013-04-08 19:59:00,
2013-04-08 16:00:00,82.3,61.2,30.08,SW,218,0.0,6.0,49,0.00,,---,0.00,VWS V14.00,2013-04-08 20:00:00,
2013-04-08 16:04:00,82.4,61.9,30.07,NNE,24,0.0,0.0,50,0.00,,---,0.00,VWS V14.00,2013-04-08 20:04:00,
2013-04-08 16:10:00,83.2,62.1,30.07,NE,36,0.0,0.0,49,0.00,,---,0.00,VWS V14.00,2013-04-08 20:10:00,
2013-04-08 16:15:00,83.4,62.3,30.07,NE,36,0.0,1.0,49,0.00,,---,0.00,VWS V14.00,2013-04-08 20:15:00,
2013-04-08 16:20:00,82.7,61.6,30.07,SW,218,0.0,3.0,49,0.00,,---,0.00,VWS V14.00,2013-04-08 20:20:00,
2013-04-08 16:25:00,82.2,61.7,30.07,WSW,240,0.0,3.0,50,0.00,,---,0.00,VWS V14.00,2013-04-08 20:25:00,
2013-04-08 16:30:00,82.5,61.4,30.07,West,267,0.0,5.0,49,0.00,,---,0.00,VWS V14.00,2013-04-08 20:30:00,
2013-04-08 16:35:00,82.9,61.8,30.07,NNE,21,1.0,2.0,49,0.00,,---,0.00,VWS V14.00,2013-04-08 20:35:00,
2013-04-08 16:41:00,83.2,62.1,30.07,NNE,22,0.0,2.0,49,0.00,,---,0.00,VWS V14.00,2013-04-08 20:41:00,
2013-04-08 16:46:00,83.5,62.9,30.07,NE,44,0.0,2.0,50,0.00,,---,0.00,VWS V14.00,2013-04-08 20:46:00,
2013-04-08 16:51:00,83.3,63.9,30.07,East,84,0.0,8.0,52,0.00,,---,0.00,VWS V14.00,2013-04-08 20:51:00,
2013-04-08 16:57:00,82.8,63.9,30.07,NNE,28,0.0,8.0,53,0.00,,---,0.00,VWS V14.00,2013-04-08 20:57:00,
2013-04-08 17:00:00,82.7,64.4,30.07,NE,52,0.0,8.0,54,0.00,,---,0.00,VWS V14.00,2013-04-08 21:00:00,
2013-04-08 17:02:00,82.8,64.5,30.07,ENE,68,1.0,2.0,54,0.00,,---,0.00,VWS V14.00,2013-04-08 21:02:00,
2013-04-08 17:07:00,82.6,63.8,30.07,East,82,0.0,5.0,53,0.00,,---,0.00,VWS V14.00,2013-04-08 21:07:00,
2013-04-08 17:12:00,82.3,63.5,30.07,ENE,72,2.0,5.0,53,0.00,,---,0.00,VWS V14.00,2013-04-08 21:12:00,
2013-04-08 17:18:00,82.0,63.7,30.06,NE,34,2.0,5.0,54,0.00,,---,0.00,VWS V14.00,2013-04-08 21:18:00,
2013-04-08 17:23:00,82.1,63.3,30.06,NNE,33,0.0,5.0,53,0.00,,---,0.00,VWS V14.00,2013-04-08 21:23:00,
2013-04-08 17:28:00,82.1,62.8,30.06,ENE,65,0.0,5.0,52,0.00,,---,0.00,VWS V14.00,2013-04-08 21:28:00,
2013-04-08 17:30:00,82.1,63.3,30.06,NE,51,1.0,6.0,53,0.00,,---,0.00,VWS V14.00,2013-04-08 21:30:00,
2013-04-08 17:33:00,82.0,63.2,30.07,NE,54,0.0,2.0,53,0.00,,---,0.00,VWS V14.00,2013-04-08 21:33:00,
2013-04-08 17:39:00,81.5,62.2,30.07,East,92,3.0,9.0,52,0.00,,---,0.00,VWS V14.00,2013-04-08 21:39:00,
2013-04-08 17:44:00,81.2,62.5,30.07,NE,43,0.0,9.0,53,0.00,,---,0.00,VWS V14.00,2013-04-08 21:44:00,
2013-04-08 17:49:00,81.4,62.1,30.07,ENE,67,0.0,9.0,52,0.00,,---,0.00,VWS V14.00,2013-04-08 21:49:00,
2013-04-08 17:54:00,81.2,62.5,30.07,North,360,0.0,9.0,53,0.00,,---,0.00,VWS V14.00,2013-04-08 21:54:00,
2013-04-08 17:59:00,81.1,62.9,30.07,NNE,19,0.0,9.0,54,0.00,,---,0.00,VWS V14.00,2013-04-08 21:59:00,
2013-04-08 18:00:00,81.0,62.8,30.07,NNE,22,0.0,9.0,54,0.00,,---,0.00,VWS V14.00,2013-04-08 22:00:00,
2013-04-08 18:05:00,80.7,63.0,30.07,ENE,76,0.0,1.0,55,0.00,,---,0.00,VWS V14.00,2013-04-08 22:05:00,
2013-04-08 18:10:00,80.3,62.7,30.07,NW,320,0.0,6.0,55,0.00,,---,0.00,VWS V14.00,2013-04-08 22:10:00,
2013-04-08 18:15:00,80.2,62.6,30.07,SSW,197,0.0,6.0,55,0.00,,---,0.00,VWS V14.00,2013-04-08 22:15:00,
2013-04-08 18:20:00,80.0,62.4,30.08,ENE,57,0.0,6.0,55,0.00,,---,0.00,VWS V14.00,2013-04-08 22:20:00,
2013-04-08 18:26:00,79.7,62.1,30.08,NNE,18,0.0,6.0,55,0.00,,---,0.00,VWS V14.00,2013-04-08 22:26:00,
2013-04-08 18:30:00,79.5,62.5,30.08,ENE,74,0.0,6.0,56,0.00,,---,0.00,VWS V14.00,2013-04-08 22:30:00,
2013-04-08 18:31:00,79.5,62.5,30.08,ENE,74,0.0,6.0,56,0.00,,---,0.00,VWS V14.00,2013-04-08 22:31:00,
2013-04-08 18:36:00,79.2,62.7,30.08,ENE,69,0.0,3.0,57,0.00,,---,0.00,VWS V14.00,2013-04-08 22:36:00,
2013-04-08 18:42:00,78.7,62.2,30.08,ENE,76,0.0,3.0,57,0.00,,---,0.00,VWS V14.00,2013-04-08 22:42:00,
2013-04-08 18:47:00,78.4,61.9,30.08,SSE,152,0.0,3.0,57,0.00,,---,0.00,VWS V14.00,2013-04-08 22:47:00,
2013-04-08 18:53:00,78.1,62.1,30.09,SE,146,0.0,3.0,58,0.00,,---,0.00,VWS V14.00,2013-04-08 22:53:00,
2013-04-08 18:58:00,77.8,61.9,30.09,NE,55,0.0,3.0,58,0.00,,---,0.00,VWS V14.00,2013-04-08 22:58:00,
2013-04-08 19:00:00,77.6,61.7,30.09,NE,53,0.0,3.0,58,0.00,,---,0.00,VWS V14.00,2013-04-08 23:00:00,
2013-04-08 19:03:00,77.5,61.6,30.09,NE,52,0.0,0.0,58,0.00,,---,0.00,VWS V14.00,2013-04-08 23:03:00,
2013-04-08 19:08:00,77.2,61.3,30.09,ESE,117,0.0,0.0,58,0.00,,---,0.00,VWS V14.00,2013-04-08 23:08:00,
2013-04-08 19:14:00,76.7,61.3,30.09,NE,51,0.0,6.0,59,0.00,,---,0.00,VWS V14.00,2013-04-08 23:14:00,
2013-04-08 19:20:00,76.5,61.1,30.09,ENE,63,0.0,6.0,59,0.00,,---,0.00,VWS V14.00,2013-04-08 23:20:00,
2013-04-08 19:25:00,76.3,60.9,30.09,ENE,63,0.0,6.0,59,0.00,,---,0.00,VWS V14.00,2013-04-08 23:25:00,
2013-04-08 19:30:00,76.0,61.1,30.09,ENE,63,0.0,6.0,60,0.00,,---,0.00,VWS V14.00,2013-04-08 23:30:00,
2013-04-08 19:35:00,75.7,60.8,30.10,ENE,62,0.0,1.0,60,0.00,,---,0.00,VWS V14.00,2013-04-08 23:35:00,
2013-04-08 19:40:00,75.4,61.0,30.10,NNW,338,0.0,1.0,61,0.00,,---,0.00,VWS V14.00,2013-04-08 23:40:00,
2013-04-08 19:45:00,75.1,60.8,30.10,NNW,338,0.0,1.0,61,0.00,,---,0.00,VWS V14.00,2013-04-08 23:45:00,
2013-04-08 19:51:00,74.9,61.0,30.09,ENE,63,0.0,1.0,62,0.00,,---,0.00,VWS V14.00,2013-04-08 23:51:00,
2013-04-08 19:56:00,74.7,60.8,30.09,ENE,63,0.0,1.0,62,0.00,,---,0.00,VWS V14.00,2013-04-08 23:56:00,
2013-04-08 20:00:00,74.5,60.6,30.10,ENE,63,0.0,1.0,62,0.00,,---,0.00,VWS V14.00,2013-04-09 00:00:00,
2013-04-08 20:01:00,74.5,60.6,30.10,ENE,63,0.0,1.0,62,0.00,,---,0.00,VWS V14.00,2013-04-09 00:01:00,
2013-04-08 20:06:00,74.3,60.9,30.10,ENE,63,0.0,0.0,63,0.00,,---,0.00,VWS V14.00,2013-04-09 00:06:00,
2013-04-08 20:11:00,74.1,60.7,30.10,ENE,63,0.0,0.0,63,0.00,,---,0.00,VWS V14.00,2013-04-09 00:11:00,
2013-04-08 20:17:00,73.9,61.0,30.10,ENE,63,0.0,0.0,64,0.00,,---,0.00,VWS V14.00,2013-04-09 00:17:00,
2013-04-08 20:22:00,73.7,61.2,30.10,ENE,63,0.0,0.0,65,0.00,,---,0.00,VWS V14.00,2013-04-09 00:22:00,
2013-04-08 20:27:00,73.5,61.5,30.10,ENE,63,0.0,0.0,66,0.00,,---,0.00,VWS V14.00,2013-04-09 00:27:00,
2013-04-08 20:30:00,73.2,61.2,30.10,ENE,63,0.0,0.0,66,0.00,,---,0.00,VWS V14.00,2013-04-09 00:30:00,
2013-04-08 20:32:00,73.1,61.1,30.10,ENE,63,0.0,0.0,66,0.00,,---,0.00,VWS V14.00,2013-04-09 00:32:00,
2013-04-08 20:38:00,72.8,61.2,30.10,ENE,63,0.0,0.0,67,0.00,,---,0.00,VWS V14.00,2013-04-09 00:38:00,
2013-04-08 20:43:00,72.4,61.2,30.11,ENE,63,0.0,0.0,68,0.00,,---,0.00,VWS V14.00,2013-04-09 00:43:00,
2013-04-08 20:48:00,72.3,61.2,30.11,ENE,63,0.0,1.0,68,0.00,,---,0.00,VWS V14.00,2013-04-09 00:48:00,
2013-04-08 20:54:00,72.2,61.1,30.11,ENE,63,0.0,1.0,68,0.00,,---,0.00,VWS V14.00,2013-04-09 00:54:00,
2013-04-08 20:59:00,72.1,61.4,30.11,ENE,57,0.0,1.0,69,0.00,,---,0.00,VWS V14.00,2013-04-09 00:59:00,
2013-04-08 21:00:00,72.1,61.4,30.11,ENE,57,0.0,1.0,69,0.00,,---,0.00,VWS V14.00,2013-04-09 01:00:00,
2013-04-08 21:04:00,71.9,61.2,30.11,NE,55,0.0,4.0,69,0.00,,---,0.00,VWS V14.00,2013-04-09 01:04:00,
2013-04-08 21:10:00,71.7,61.4,30.11,NE,55,0.0,4.0,70,0.00,,---,0.00,VWS V14.00,2013-04-09 01:10:00,
2013-04-08 21:15:00,71.5,61.2,30.11,NE,55,0.0,4.0,70,0.00,,---,0.00,VWS V14.00,2013-04-09 01:15:00,
2013-04-08 21:20:00,71.3,61.4,30.11,NE,52,0.0,4.0,71,0.00,,---,0.00,VWS V14.00,2013-04-09 01:20:00,
2013-04-08 21:25:00,71.0,61.5,30.11,NE,53,0.0,4.0,72,0.00,,---,0.00,VWS V14.00,2013-04-09 01:25:00,
2013-04-08 21:30:00,70.7,61.6,30.11,NE,52,0.0,4.0,73,0.00,,---,0.00,VWS V14.00,2013-04-09 01:30:00,
2013-04-08 21:35:00,70.4,61.3,30.12,NE,53,0.0,0.0,73,0.00,,---,0.00,VWS V14.00,2013-04-09 01:35:00,
2013-04-08 21:41:00,70.2,61.5,30.12,NE,53,0.0,0.0,74,0.00,,---,0.00,VWS V14.00,2013-04-09 01:41:00,
2013-04-08 21:47:00,69.9,61.6,30.12,NE,52,0.0,0.0,75,0.00,,---,0.00,VWS V14.00,2013-04-09 01:47:00,
2013-04-08 21:52:00,69.7,61.8,30.12,NE,53,0.0,0.0,76,0.00,,---,0.00,VWS V14.00,2013-04-09 01:52:00,
2013-04-08 21:57:00,69.5,61.6,30.12,NE,52,0.0,0.0,76,0.00,,---,0.00,VWS V14.00,2013-04-09 01:57:00,
2013-04-08 22:00:00,69.4,61.9,30.12,NE,52,0.0,0.0,77,0.00,,---,0.00,VWS V14.00,2013-04-09 02:00:00,
2013-04-08 22:03:00,69.3,61.8,30.13,NE,52,0.0,0.0,77,0.00,,---,0.00,VWS V14.00,2013-04-09 02:03:00,
2013-04-08 22:08:00,69.1,62.0,30.13,NE,53,0.0,0.0,78,0.00,,---,0.00,VWS V14.00,2013-04-09 02:08:00,
2013-04-08 22:13:00,68.9,61.8,30.13,NE,53,0.0,0.0,78,0.00,,---,0.00,VWS V14.00,2013-04-09 02:13:00,
2013-04-08 22:19:00,68.7,61.9,30.13,NE,53,0.0,0.0,79,0.00,,---,0.00,VWS V14.00,2013-04-09 02:19:00,
2013-04-08 22:24:00,68.6,62.2,30.13,NE,52,0.0,0.0,80,0.00,,---,0.00,VWS V14.00,2013-04-09 02:24:00,
2013-04-08 22:30:00,68.4,62.3,30.14,NE,53,0.0,0.0,81,0.00,,---,0.00,VWS V14.00,2013-04-09 02:30:00,
2013-04-08 22:35:00,68.3,62.6,30.13,NE,52,0.0,0.0,82,0.00,,---,0.00,VWS V14.00,2013-04-09 02:35:00,
2013-04-08 22:40:00,68.1,62.4,30.13,NE,53,0.0,0.0,82,0.00,,---,0.00,VWS V14.00,2013-04-09 02:40:00,
2013-04-08 22:45:00,67.9,62.5,30.13,NE,53,0.0,0.0,83,0.00,,---,0.00,VWS V14.00,2013-04-09 02:45:00,
2013-04-08 22:50:00,67.7,62.7,30.13,NE,53,0.0,0.0,84,0.00,,---,0.00,VWS V14.00,2013-04-09 02:50:00,
2013-04-08 22:55:00,67.6,62.9,30.13,NE,52,0.0,0.0,85,0.00,,---,0.00,VWS V14.00,2013-04-09 02:55:00,
2013-04-08 23:00:00,67.4,62.7,30.14,NE,53,0.0,0.0,85,0.00,,---,0.00,VWS V14.00,2013-04-09 03:00:00,
2013-04-08 23:01:00,67.5,62.8,30.14,NE,52,0.0,0.0,85,0.00,,---,0.00,VWS V14.00,2013-04-09 03:01:00,
2013-04-08 23:06:00,67.4,62.7,30.14,NE,53,0.0,0.0,85,0.00,,---,0.00,VWS V14.00,2013-04-09 03:06:00,
2013-04-08 23:11:00,67.3,63.0,30.14,NE,52,0.0,0.0,86,0.00,,---,0.00,VWS V14.00,2013-04-09 03:11:00,
2013-04-08 23:16:00,67.1,62.8,30.14,NE,53,0.0,0.0,86,0.00,,---,0.00,VWS V14.00,2013-04-09 03:16:00,
2013-04-08 23:22:00,66.9,62.6,30.14,NE,52,0.0,0.0,86,0.00,,---,0.00,VWS V14.00,2013-04-09 03:22:00,
2013-04-08 23:27:00,66.8,62.8,30.14,NE,53,0.0,0.0,87,0.00,,---,0.00,VWS V14.00,2013-04-09 03:27:00,
2013-04-08 23:30:00,66.7,62.7,30.14,NE,53,0.0,0.0,87,0.00,,---,0.00,VWS V14.00,2013-04-09 03:30:00,
2013-04-08 23:32:00,66.7,63.0,30.14,NE,53,0.0,0.0,88,0.00,,---,0.00,VWS V14.00,2013-04-09 03:32:00,
2013-04-08 23:37:00,66.6,62.9,30.14,NE,52,0.0,0.0,88,0.00,,---,0.00,VWS V14.00,2013-04-09 03:37:00,
2013-04-08 23:43:00,66.4,62.7,30.14,NE,53,0.0,0.0,88,0.00,,---,0.00,VWS V14.00,2013-04-09 03:43:00,
2013-04-08 23:48:00,66.3,62.6,30.14,NE,53,0.0,0.0,88,0.00,,---,0.00,VWS V14.00,2013-04-09 03:48:00,
2013-04-08 23:53:00,66.3,63.0,30.14,NE,53,0.0,0.0,89,0.00,,---,0.00,VWS V14.00,2013-04-09 03:53:00,
2013-04-08 23:59:00,66.2,62.9,30.14,NE,53,0.0,0.0,89,0.00,,---,0.00,VWS V14.00,2013-04-09 03:59:00,